sensor_id;sensor_type;location;lat;lon;timestamp;P1;durP1;ratioP1;P2;durP2;ratioP2
12373;SDS011;6251;51.762;8.660;2022-12-29T05:10:18;0.40;;;0.40;;
12373;SDS011;6251;51.762;8.660;2022-12-29T05:20:19;0.45;;;0.45;;
12373;SDS011;6251;51.762;8.660;2022-12-29T05:30:19;0.40;;;0.40;;
12373;SDS011;6251;51.762;8.660;2022-12-29T05:40:20;0.57;;;0.43;;
12373;SDS011;6251;51.762;8.660;2022-12-29T05:50:21;0.50;;;0.50;;
12373;SDS011;6251;51.762;8.660;2022-12-29T06:00:21;0.57;;;0.57;;
12373;SDS011;6251;51.762;8.660;2022-12-29T06:10:22;0.62;;;0.62;;
12373;SDS011;6251;51.762;8.660;2022-12-29T06:20:23;0.55;;;0.50;;
12373;SDS011;6251;51.762;8.660;2022-12-29T06:30:23;0.90;;;0.90;;
12373;SDS011;6251;51.762;8.660;2022-12-29T06:40:24;0.50;;;0.50;;
12373;SDS011;6251;51.762;8.660;2022-12-29T06:50:24;0.85;;;0.60;;
12373;SDS011;6251;51.762;8.660;2022-12-29T07:00:25;1.30;;;0.60;;
12373;SDS011;6251;51.762;8.660;2022-12-29T07:10:26;0.57;;;0.57;;
12373;SDS011;6251;51.762;8.660;2022-12-29T07:20:26;0.40;;;0.40;;
12373;SDS011;6251;51.762;8.660;2022-12-29T07:30:27;0.50;;;0.50;;
12373;SDS011;6251;51.762;8.660;2022-12-29T07:40:28;0.60;;;0.60;;
12373;SDS011;6251;51.762;8.660;2022-12-29T07:50:28;1.12;;;0.82;;
12373;SDS011;6251;51.762;8.660;2022-12-29T08:00:29;0.57;;;0.57;;
12373;SDS011;6251;51.762;8.660;2022-12-29T08:10:29;1.05;;;0.70;;
12373;SDS011;6251;51.762;8.660;2022-12-29T08:20:41;1.42;;;0.70;;
12373;SDS011;6251;51.762;8.660;2022-12-29T08:30:42;0.98;;;0.80;;
12373;SDS011;6251;51.762;8.660;2022-12-29T08:40:51;0.57;;;0.57;;
12373;SDS011;6251;51.762;8.660;2022-12-29T08:50:52;1.00;;;1.00;;
12373;SDS011;6251;51.762;8.660;2022-12-29T09:00:54;0.80;;;0.80;;
12373;SDS011;6251;51.762;8.660;2022-12-29T09:10:55;0.82;;;0.82;;
12373;SDS011;6251;51.762;8.660;2022-12-29T09:21:25;0.70;;;0.70;;
12373;SDS011;6251;51.762;8.660;2022-12-29T09:31:26;1.30;;;1.05;;
12373;SDS011;6251;51.762;8.660;2022-12-29T09:41:29;2.03;;;1.00;;
12373;SDS011;6251;51.762;8.660;2022-12-29T09:51:39;0.98;;;0.95;;
12373;SDS011;6251;51.762;8.660;2022-12-29T10:01:49;1.50;;;1.08;;
12373;SDS011;6251;51.762;8.660;2022-12-29T10:22:43;4.20;;;1.20;;
12373;SDS011;6251;51.762;8.660;2022-12-29T10:32:56;1.85;;;1.20;;
12373;SDS011;6251;51.762;8.660;2022-12-29T10:43:00;1.20;;;0.85;;
12373;SDS011;6251;51.762;8.660;2022-12-29T10:53:05;2.65;;;1.00;;
12373;SDS011;6251;51.762;8.660;2022-12-29T11:03:29;1.12;;;0.90;;
12373;SDS011;6251;51.762;8.660;2022-12-29T11:13:47;2.83;;;1.00;;
12373;SDS011;6251;51.762;8.660;2022-12-29T11:23:54;1.40;;;1.30;;
12373;SDS011;6251;51.762;8.660;2022-12-29T11:33:57;3.35;;;1.70;;
12373;SDS011;6251;51.762;8.660;2022-12-29T11:43:59;3.58;;;1.70;;
12373;SDS011;6251;51.762;8.660;2022-12-29T11:54:04;4.53;;;1.55;;
12373;SDS011;6251;51.762;8.660;2022-12-29T12:04:12;2.65;;;1.27;;
12373;SDS011;6251;51.762;8.660;2022-12-29T12:14:33;3.83;;;1.42;;
12373;SDS011;6251;51.762;8.660;2022-12-29T12:24:39;2.92;;;1.48;;
12373;SDS011;6251;51.762;8.660;2022-12-29T12:34:49;4.20;;;1.50;;
12373;SDS011;6251;51.762;8.660;2022-12-29T13:26:35;3.85;;;1.20;;
12373;SDS011;6251;51.762;8.660;2022-12-29T13:37:02;1.05;;;0.98;;
12373;SDS011;6251;51.762;8.660;2022-12-29T13:47:15;2.50;;;0.80;;
12373;SDS011;6251;51.762;8.660;2022-12-29T13:57:38;2.92;;;1.00;;
12373;SDS011;6251;51.762;8.660;2022-12-29T14:07:56;3.17;;;1.10;;
12373;SDS011;6251;51.762;8.660;2022-12-29T14:18:03;1.90;;;0.80;;
12373;SDS011;6251;51.762;8.660;2022-12-29T14:28:22;4.15;;;1.33;;
12373;SDS011;6251;51.762;8.660;2022-12-29T14:58:48;3.10;;;1.50;;
12373;SDS011;6251;51.762;8.660;2022-12-29T15:19:23;2.53;;;1.23;;
12373;SDS011;6251;51.762;8.660;2022-12-29T15:29:38;5.57;;;2.45;;
12373;SDS011;6251;51.762;8.660;2022-12-29T15:39:40;1.50;;;1.30;;
12373;SDS011;6251;51.762;8.660;2022-12-29T15:49:42;4.47;;;1.52;;
12373;SDS011;6251;51.762;8.660;2022-12-29T15:59:45;4.03;;;1.70;;
12373;SDS011;6251;51.762;8.660;2022-12-29T16:09:47;2.33;;;1.27;;
12373;SDS011;6251;51.762;8.660;2022-12-29T16:19:50;1.80;;;1.30;;
12373;SDS011;6251;51.762;8.660;2022-12-29T16:29:54;3.28;;;1.30;;
12373;SDS011;6251;51.762;8.660;2022-12-29T16:39:55;4.80;;;1.00;;
12373;SDS011;6251;51.762;8.660;2022-12-29T17:00:54;1.75;;;1.10;;
12373;SDS011;6251;51.762;8.660;2022-12-29T17:10:56;1.80;;;1.48;;
12373;SDS011;6251;51.762;8.660;2022-12-29T17:21:15;2.30;;;1.05;;
12373;SDS011;6251;51.762;8.660;2022-12-29T17:31:16;4.45;;;1.20;;
12373;SDS011;6251;51.762;8.660;2022-12-29T17:41:16;0.98;;;0.98;;
12373;SDS011;6251;51.762;8.660;2022-12-29T18:01:46;1.10;;;1.00;;
12373;SDS011;6251;51.762;8.660;2022-12-29T18:11:47;2.45;;;0.93;;
12373;SDS011;6251;51.762;8.660;2022-12-29T18:21:48;3.62;;;1.30;;
12373;SDS011;6251;51.762;8.660;2022-12-29T18:31:48;2.08;;;1.58;;
12373;SDS011;6251;51.762;8.660;2022-12-29T18:41:49;4.25;;;1.20;;
12373;SDS011;6251;51.762;8.660;2022-12-29T18:51:50;2.90;;;1.40;;
12373;SDS011;6251;51.762;8.660;2022-12-29T19:01:50;4.62;;;1.42;;
12373;SDS011;6251;51.762;8.660;2022-12-29T19:11:51;0.65;;;0.65;;
12373;SDS011;6251;51.762;8.660;2022-12-29T19:21:52;1.62;;;0.93;;
12373;SDS011;6251;51.762;8.660;2022-12-29T19:31:55;1.10;;;1.05;;
12373;SDS011;6251;51.762;8.660;2022-12-29T19:41:56;2.17;;;1.10;;
12373;SDS011;6251;51.762;8.660;2022-12-29T19:51:56;1.35;;;1.35;;
12373;SDS011;6251;51.762;8.660;2022-12-29T20:01:57;2.83;;;2.20;;
12373;SDS011;6251;51.762;8.660;2022-12-29T20:11:57;5.40;;;2.05;;
12373;SDS011;6251;51.762;8.660;2022-12-29T20:21:58;4.87;;;2.50;;
12373;SDS011;6251;51.762;8.660;2022-12-29T20:31:59;3.20;;;2.17;;
12373;SDS011;6251;51.762;8.660;2022-12-29T20:41:59;5.80;;;2.40;;
12373;SDS011;6251;51.762;8.660;2022-12-29T21:02:26;5.70;;;2.33;;
12373;SDS011;6251;51.762;8.660;2022-12-29T21:12:27;7.30;;;2.87;;
12373;SDS011;6251;51.762;8.660;2022-12-29T21:22:27;9.38;;;2.12;;
12373;SDS011;6251;51.762;8.660;2022-12-29T21:32:28;10.80;;;3.90;;
12373;SDS011;6251;51.762;8.660;2022-12-29T21:42:29;9.80;;;3.40;;
12373;SDS011;6251;51.762;8.660;2022-12-29T21:52:29;7.35;;;2.30;;
12373;SDS011;6251;51.762;8.660;2022-12-29T22:02:30;12.35;;;2.35;;
12373;SDS011;6251;51.762;8.660;2022-12-29T22:12:49;8.77;;;2.30;;
